Time;durP1;ratioP1;P1;durP2;ratioP2;P2;SDS_P1;SDS_P2;PMS_P1;PMS_P2;Temp;Humidity;BMP_temperature;BMP_pressure;BME280_temperature;BME280_humidity;BME280_pressure;Samples;Min_cycle;Max_cycle;Signal;HPM_P1;HPM_P2
2022/03/27 00:00:56;;;;;;;;;;;;;;;8.47;99.58;103361.53;5134821;27;20453;-78
2022/03/27 00:03:43;;;;;;;;;;;;;;;8.42;99.44;103376.88;5115203;27;20022;-79
2022/03/27 00:06:08;;;;;;;;;;;;;;;8.45;100.00;103399.84;5116421;27;20385;-79
2022/03/27 00:08:50;;;;;;;;;;;;;;;8.41;100.00;103400.38;5134616;27;19937;-75
2022/03/27 00:11:27;;;;;;;;;;;;;;;8.43;99.19;103401.41;5115879;27;20018;-78
2022/03/27 00:13:55;;;;;;;;;;;;;;;8.41;98.61;103400.38;5116106;27;20405;-78
2022/03/27 00:16:22;;;;;;;;;;;;;;;8.45;100.00;103402.47;5099847;27;20386;-78
2022/03/27 00:18:50;;;;;;;;;;;;;;;8.42;98.70;103404.81;5099111;27;19924;-78
2022/03/27 00:21:34;;;;;;;;;;;;;;;8.44;98.01;103400.66;5099882;27;20399;-77
2022/03/27 00:24:03;;;;;;;;;;;;;;;8.44;97.89;103398.94;5116218;27;19939;-78
2022/03/27 00:26:38;;;;;;;;;;;;;;;8.48;97.77;103396.59;5115991;27;20379;-78
2022/03/27 00:29:04;;;;;;;;;;;;;;;8.49;97.33;103388.84;5116367;27;19943;-77
2022/03/27 00:31:35;;;;;;;;;;;;;;;8.47;97.89;103390.44;5115869;28;20348;-78
2022/03/27 00:34:04;;;;;;;;;;;;;;;8.47;98.18;103390.44;5134949;27;19916;-78
2022/03/27 00:36:32;;;;;;;;;;;;;;;8.49;98.23;103394.09;5116112;28;19961;-78
2022/03/27 00:39:05;;;;;;;;;;;;;;;8.53;97.57;103388.31;5114585;27;20046;-78
2022/03/27 00:41:51;;;;;;;;;;;;;;;8.48;97.75;103423.75;5132449;28;19919;-78
2022/03/27 00:44:20;;;;;;;;;;;;;;;8.47;98.08;103427.19;5093305;28;19923;-78
2022/03/27 00:46:52;;;;;;;;;;;;;;;8.47;98.05;103436.75;5110230;28;19926;-78
2022/03/27 00:49:21;;;;;;;;;;;;;;;8.44;98.24;103426.91;5094485;28;19947;-77
2022/03/27 00:51:47;;;;;;;;;;;;;;;8.40;98.75;103425.69;5111222;28;20367;-77
2022/03/27 00:54:12;;;;;;;;;;;;;;;8.38;99.07;103415.84;5103651;28;19930;-78
2022/03/27 00:56:39;;;;;;;;;;;;;;;8.41;99.17;103427.53;5114097;28;19988;-77
2022/03/27 00:59:11;;;;;;;;;;;;;;;8.39;99.80;103430.81;5093335;28;20008;-78
2022/03/27 01:01:38;;;;;;;;;;;;;;;8.40;99.48;103433.56;5093774;28;19965;-78
2022/03/27 01:04:31;;;;;;;;;;;;;;;8.44;98.80;103432.19;5102555;28;19919;-78
2022/03/27 01:06:57;;;;;;;;;;;;;;;8.43;98.59;103432.91;5132314;28;19927;-77
2022/03/27 01:09:37;;;;;;;;;;;;;;;8.40;99.11;103432.66;5115402;28;19920;-77
2022/03/27 01:12:22;;;;;;;;;;;;;;;8.41;98.93;103422.28;5116493;28;19919;-77
2022/03/27 01:14:52;;;;;;;;;;;;;;;8.34;99.72;103427.78;5133151;28;19919;-78
2022/03/27 01:17:38;;;;;;;;;;;;;;;8.25;100.00;103424.38;5132760;28;19924;-77
2022/03/27 01:20:08;;;;;;;;;;;;;;;8.18;100.00;103420.28;5132787;28;19919;-77
2022/03/27 01:22:55;;;;;;;;;;;;;;;8.15;99.84;103420.03;5115786;28;19919;-77
2022/03/27 01:25:46;;;;;;;;;;;;;;;8.07;99.42;103413.19;5115390;28;19920;-77
2022/03/27 01:28:12;;;;;;;;;;;;;;;8.05;98.11;103413.06;5115455;28;19915;-78
2022/03/27 01:30:59;;;;;;;;;;;;;;;8.06;96.96;103416.59;5132797;28;19915;-78
2022/03/27 01:33:59;;;;;;;;;;;;;;;8.04;96.90;103408.59;5132829;28;20037;-78
2022/03/27 01:36:28;;;;;;;;;;;;;;;7.95;97.13;103417.38;5112724;28;19922;-78
2022/03/27 01:38:56;;;;;;;;;;;;;;;7.87;96.82;103417.59;5115589;27;19923;-78
2022/03/27 01:41:22;;;;;;;;;;;;;;;7.85;96.10;103415.66;5136388;27;19973;-78
2022/03/27 01:44:03;;;;;;;;;;;;;;;7.79;97.06;103416.03;5137263;27;19915;-77
2022/03/27 01:46:32;;;;;;;;;;;;;;;7.77;96.13;103430.72;5119459;27;19923;-78
2022/03/27 01:49:02;;;;;;;;;;;;;;;7.77;96.32;103433.34;5119086;27;19915;-78
2022/03/27 01:51:34;;;;;;;;;;;;;;;7.74;97.78;103440.94;5137288;27;19965;-78
2022/03/27 01:54:03;;;;;;;;;;;;;;;7.64;98.51;103441.78;5137229;27;19988;-78
2022/03/27 01:56:30;;;;;;;;;;;;;;;7.59;99.86;103442.19;5134086;27;19915;-78
2022/03/27 01:58:57;;;;;;;;;;;;;;;7.55;100.00;103444.53;5137120;27;19919;-78
2022/03/27 02:01:22;;;;;;;;;;;;;;;7.55;98.85;103434.03;5119090;27;19938;-77
2022/03/27 02:03:54;;;;;;;;;;;;;;;7.42;98.37;103438.97;5101070;27;19919;-78
2022/03/27 02:06:26;;;;;;;;;;;;;;;7.40;95.66;103442.25;5136635;27;19915;-78
2022/03/27 02:09:13;;;;;;;;;;;;;;;7.45;91.98;103433.09;5135805;27;19925;-77
2022/03/27 02:11:47;;;;;;;;;;;;;;;7.33;90.65;103435.50;5118460;27;20010;-77
2022/03/27 02:14:21;;;;;;;;;;;;;;;7.32;88.29;103446.78;5135727;27;19962;-77
2022/03/27 02:16:46;;;;;;;;;;;;;;;7.30;86.85;103441.41;5136720;27;19923;-77
2022/03/27 02:19:24;;;;;;;;;;;;;;;7.30;85.52;103443.09;5118738;27;19919;-77
2022/03/27 02:21:57;;;;;;;;;;;;;;;7.22;84.49;103441.47;5136433;27;20424;-77
2022/03/27 02:24:25;;;;;;;;;;;;;;;7.24;83.83;103439.91;5098507;28;20022;-77
2022/03/27 02:26:52;;;;;;;;;;;;;;;7.25;83.06;103445.28;5098598;28;19989;-77
2022/03/27 02:29:37;;;;;;;;;;;;;;;7.28;83.21;103442.03;5103625;27;20002;-77
2022/03/27 02:32:11;;;;;;;;;;;;;;;7.31;82.38;103444.94;5135543;27;19948;-78
2022/03/27 02:35:07;;;;;;;;;;;;;;;7.20;81.93;103436.09;5118176;27;19920;-77
2022/03/27 02:37:55;;;;;;;;;;;;;;;7.11;81.26;103430.03;5135843;27;19915;-78
2022/03/27 02:41:03;;;;;;;;;;;;;;;7.08;80.52;103432.34;5135383;27;20006;-78
2022/03/27 02:43:38;;;;;;;;;;;;;;;7.08;79.88;103437.59;5112446;27;19948;-77
2022/03/27 02:46:07;;;;;;;;;;;;;;;7.03;79.66;103431.03;5118013;27;19941;-78
2022/03/27 02:48:33;;;;;;;;;;;;;;;6.95;79.53;103438.19;5100882;27;19923;-78
2022/03/27 02:51:02;;;;;;;;;;;;;;;6.98;79.21;103428.00;5118390;27;19955;-77
2022/03/27 02:53:32;;;;;;;;;;;;;;;6.95;78.94;103432.94;5100791;27;19962;-77
2022/03/27 02:56:17;;;;;;;;;;;;;;;6.92;78.69;103432.66;5136330;27;20286;-78
2022/03/27 02:58:48;;;;;;;;;;;;;;;6.91;78.44;103434.34;5135933;27;20006;-78
2022/03/27 03:01:14;;;;;;;;;;;;;;;6.90;78.27;103435.13;5118050;27;20379;-78
2022/03/27 03:03:50;;;;;;;;;;;;;;;6.90;77.90;103429.91;5100282;27;19926;-78
2022/03/27 03:06:16;;;;;;;;;;;;;;;6.92;77.64;103428.31;5135287;27;19922;-77
2022/03/27 03:08:42;;;;;;;;;;;;;;;6.90;77.49;103428.94;5100774;27;19919;-78
2022/03/27 03:11:08;;;;;;;;;;;;;;;6.89;77.20;103433.28;5116925;27;19915;-78
2022/03/27 03:13:34;;;;;;;;;;;;;;;6.90;77.01;103428.94;5117342;27;19922;-78
2022/03/27 03:16:00;;;;;;;;;;;;;;;6.91;76.88;103421.25;5117668;27;20256;-77
2022/03/27 03:18:29;;;;;;;;;;;;;;;6.91;76.91;103422.94;5116955;27;19915;-79
2022/03/27 03:20:56;;;;;;;;;;;;;;;6.92;76.99;103424.81;5135936;27;19915;-77
2022/03/27 03:23:24;;;;;;;;;;;;;;;6.90;76.82;103429.91;5117541;27;19947;-78
2022/03/27 03:26:00;;;;;;;;;;;;;;;6.86;76.88;103432.09;5135507;27;19919;-76
2022/03/27 03:28:26;;;;;;;;;;;;;;;6.89;76.87;103438.53;5116222;27;19972;-78
2022/03/27 03:30:54;;;;;;;;;;;;;;;6.88;76.96;103436.66;5132717;27;19919;-76
2022/03/27 03:33:22;;;;;;;;;;;;;;;6.79;77.22;103436.75;5134261;27;19919;-77
2022/03/27 03:35:49;;;;;;;;;;;;;;;6.77;77.36;103430.44;5117219;27;20013;-77
2022/03/27 03:38:15;;;;;;;;;;;;;;;6.83;77.44;103437.97;5134846;27;19911;-77
2022/03/27 03:40:41;;;;;;;;;;;;;;;6.85;77.50;103436.38;5135203;27;19915;-77
2022/03/27 03:43:11;;;;;;;;;;;;;;;6.87;77.56;103440.09;5099992;27;20264;-76
2022/03/27 03:45:36;;;;;;;;;;;;;;;6.85;77.66;103432.84;5094344;28;19942;-77
2022/03/27 03:48:05;;;;;;;;;;;;;;;6.85;77.77;103431.16;5095590;28;20580;-77
2022/03/27 03:50:36;;;;;;;;;;;;;;;6.84;77.92;103431.94;5083726;28;19931;-77
2022/03/27 03:53:10;;;;;;;;;;;;;;;6.81;78.16;103436.91;5128331;27;19924;-77
2022/03/27 03:55:36;;;;;;;;;;;;;;;6.79;78.29;103431.53;5096460;28;19946;-78
2022/03/27 03:58:22;;;;;;;;;;;;;;;6.81;78.27;103423.81;5096771;28;20228;-77
2022/03/27 04:00:50;;;;;;;;;;;;;;;6.88;78.21;103427.91;5095936;28;19916;-78
2022/03/27 04:03:23;;;;;;;;;;;;;;;6.87;78.28;103433.91;5106670;28;20388;-78
2022/03/27 04:05:52;;;;;;;;;;;;;;;6.89;78.34;103440.22;5114056;28;20011;-78
2022/03/27 04:08:18;;;;;;;;;;;;;;;6.81;78.63;103435.19;5096364;28;20352;-78
2022/03/27 04:10:44;;;;;;;;;;;;;;;6.73;79.15;103432.66;5095906;28;20488;-78
2022/03/27 04:13:10;;;;;;;;;;;;;;;6.73;79.53;103441.44;5113166;27;19950;-78
2022/03/27 04:15:38;;;;;;;;;;;;;;;6.70;79.98;103435.00;5078705;28;19916;-78
2022/03/27 04:18:04;;;;;;;;;;;;;;;6.77;80.10;103434.75;5079447;28;19920;-77
2022/03/27 04:20:54;;;;;;;;;;;;;;;6.73;80.38;103430.94;5118485;27;20383;-77
2022/03/27 04:23:34;;;;;;;;;;;;;;;6.74;80.81;103438.03;5116300;27;19911;-77
2022/03/27 04:26:02;;;;;;;;;;;;;;;6.79;81.20;103435.81;5126543;27;20021;-77
2022/03/27 04:28:29;;;;;;;;;;;;;;;6.83;81.61;103436.25;5134200;27;19915;-78
2022/03/27 04:31:18;;;;;;;;;;;;;;;6.88;82.12;103441.00;5118957;27;19964;-77
2022/03/27 04:34:00;;;;;;;;;;;;;;;6.83;82.65;103444.09;5116311;28;19925;-78
2022/03/27 04:36:29;;;;;;;;;;;;;;;6.80;83.29;103453.38;5117154;28;19927;-77
2022/03/27 04:38:59;;;;;;;;;;;;;;;6.83;83.67;103446.72;5099142;27;19958;-78
2022/03/27 04:41:25;;;;;;;;;;;;;;;6.86;84.05;103453.03;5116642;28;19924;-77
2022/03/27 04:43:56;;;;;;;;;;;;;;;6.81;84.52;103445.66;5115953;28;20294;-77
2022/03/27 04:46:22;;;;;;;;;;;;;;;6.78;85.25;103455.84;5132914;28;19924;-77
2022/03/27 04:49:09;;;;;;;;;;;;;;;6.76;86.36;103452.19;5115972;28;19920;-79
2022/03/27 04:51:56;;;;;;;;;;;;;;;6.77;88.20;103459.25;5132232;28;20415;-79
2022/03/27 04:54:43;;;;;;;;;;;;;;;6.75;91.17;103457.28;5133699;28;19992;-79
2022/03/27 04:57:09;;;;;;;;;;;;;;;6.71;96.15;103457.75;5116109;28;19916;-79
2022/03/27 04:59:49;;;;;;;;;;;;;;;6.72;100.00;103468.38;5133812;28;20005;-80
2022/03/27 05:02:16;;;;;;;;;;;;;;;6.74;100.00;103461.63;5112886;28;20006;-79
2022/03/27 05:04:46;;;;;;;;;;;;;;;6.72;100.00;103468.38;5116042;28;20419;-79
2022/03/27 05:07:13;;;;;;;;;;;;;;;6.71;100.00;103456.09;5115016;28;19970;-78
2022/03/27 05:09:38;;;;;;;;;;;;;;;6.63;100.00;103459.66;5098215;28;19960;-79
2022/03/27 05:12:24;;;;;;;;;;;;;;;6.61;100.00;103458.59;5114536;28;20423;-79
2022/03/27 05:14:56;;;;;;;;;;;;;;;6.53;100.00;103456.97;5137204;27;19965;-79
2022/03/27 05:17:22;;;;;;;;;;;;;;;6.50;100.00;103457.59;5138783;27;19919;-79
2022/03/27 05:19:49;;;;;;;;;;;;;;;6.52;100.00;103449.91;5120103;27;20625;-79
2022/03/27 05:22:14;;;;;;;;;;;;;;;6.49;100.00;103458.38;5120017;27;19915;-79
2022/03/27 05:24:45;;;;;;;;;;;;;;;6.41;100.00;103459.34;5137168;27;20496;-78
2022/03/27 05:27:12;;;;;;;;;;;;;;;6.35;100.00;103464.00;5120056;27;19927;-78
2022/03/27 05:29:38;;;;;;;;;;;;;;;6.37;100.00;103454.59;5119841;27;19916;-78
2022/03/27 05:32:03;;;;;;;;;;;;;;;6.38;100.00;103453.81;5099519;28;19924;-79
2022/03/27 05:34:32;;;;;;;;;;;;;;;6.34;100.00;103457.84;5116696;28;19915;-78
2022/03/27 05:36:59;;;;;;;;;;;;;;;6.32;100.00;103467.22;5116454;28;19951;-79
2022/03/27 05:39:47;;;;;;;;;;;;;;;6.29;100.00;103462.66;5116951;28;20424;-77
2022/03/27 05:42:14;;;;;;;;;;;;;;;6.26;100.00;103456.19;5114679;28;19920;-77
2022/03/27 05:45:01;;;;;;;;;;;;;;;6.17;100.00;103453.63;5114967;28;19951;-77
2022/03/27 05:47:26;;;;;;;;;;;;;;;6.11;100.00;103456.56;5115209;28;19920;-79
2022/03/27 05:49:52;;;;;;;;;;;;;;;6.11;100.00;103445.19;5115335;28;19927;-77
2022/03/27 05:52:17;;;;;;;;;;;;;;;6.07;100.00;103454.41;5115970;28;19916;-78
2022/03/27 05:54:45;;;;;;;;;;;;;;;6.17;100.00;103455.31;5115097;28;19973;-78
2022/03/27 05:57:11;;;;;;;;;;;;;;;6.13;100.00;103458.44;5115485;28;20001;-78
2022/03/27 05:59:41;;;;;;;;;;;;;;;6.15;100.00;103456.88;5114873;28;20397;-77
2022/03/27 06:02:07;;;;;;;;;;;;;;;6.14;100.00;103457.63;5105537;28;20251;-77
2022/03/27 06:04:46;;;;;;;;;;;;;;;6.13;100.00;103459.34;5116011;28;19915;-77
2022/03/27 06:07:16;;;;;;;;;;;;;;;6.11;100.00;103467.03;5116414;28;19941;-77
2022/03/27 06:09:47;;;;;;;;;;;;;;;6.04;100.00;103459.34;5098689;28;19986;-79
2022/03/27 06:12:33;;;;;;;;;;;;;;;6.00;100.00;103459.84;5116777;28;19934;-77
2022/03/27 06:15:16;;;;;;;;;;;;;;;6.00;100.00;103472.03;5115651;28;20049;-77
2022/03/27 06:17:43;;;;;;;;;;;;;;;5.92;100.00;103473.88;5115374;28;20367;-77
2022/03/27 06:20:12;;;;;;;;;;;;;;;5.96;100.00;103477.69;5098098;28;20429;-80
2022/03/27 06:22:39;;;;;;;;;;;;;;;5.91;100.00;103472.94;5115947;28;20298;-78
2022/03/27 06:25:22;;;;;;;;;;;;;;;5.89;100.00;103478.81;5115357;28;19916;-78
2022/03/27 06:27:51;;;;;;;;;;;;;;;5.97;100.00;103480.50;5115002;28;19916;-78
2022/03/27 06:30:20;;;;;;;;;;;;;;;5.99;100.00;103478.03;5105742;28;19916;-78
2022/03/27 06:32:46;;;;;;;;;;;;;;;6.03;100.00;103485.38;5097458;27;20059;-78
2022/03/27 06:35:37;;;;;;;;;;;;;;;6.12;100.00;103470.56;5117499;27;19988;-78
2022/03/27 06:38:25;;;;;;;;;;;;;;;6.16;100.00;103479.66;5114995;27;19927;-79
2022/03/27 06:41:01;;;;;;;;;;;;;;;6.13;100.00;103476.75;5130310;27;19979;-79
2022/03/27 06:43:40;;;;;;;;;;;;;;;6.13;100.00;103469.78;5116593;27;20355;-79
2022/03/27 06:46:07;;;;;;;;;;;;;;;6.22;100.00;103473.28;5097744;28;19941;-79
2022/03/27 06:49:12;;;;;;;;;;;;;;;6.27;100.00;103473.75;5114225;28;20019;-78
2022/03/27 06:51:38;;;;;;;;;;;;;;;6.39;100.00;103477.53;5113007;27;19922;-78
2022/03/27 06:54:04;;;;;;;;;;;;;;;6.22;100.00;103475.00;5124483;27;20002;-78
2022/03/27 06:56:30;;;;;;;;;;;;;;;6.11;100.00;103461.81;5117161;27;19961;-78
2022/03/27 07:05:12;;;;;;;;;;;;;;;6.50;100.00;103454.06;5135898;27;20110;-78
2022/03/27 07:08:00;;;;;;;;;;;;;;;6.54;100.00;103445.72;5131743;27;19916;-78
2022/03/27 07:11:10;;;;;;;;;;;;;;;6.54;100.00;103435.25;5115093;28;19955;-78
2022/03/27 07:13:51;;;;;;;;;;;;;;;6.55;100.00;103429.25;5114997;28;19959;-79
2022/03/27 07:16:38;;;;;;;;;;;;;;;6.40;100.00;103421.78;5098031;28;19916;-79
2022/03/27 07:19:05;;;;;;;;;;;;;;;6.47;100.00;103418.03;5119833;27;19920;-81
2022/03/27 07:21:31;;;;;;;;;;;;;;;6.43;100.00;103413.28;5116129;27;19916;-78
2022/03/27 07:23:58;;;;;;;;;;;;;;;6.50;100.00;103400.00;5082836;27;19920;-78
2022/03/27 07:26:25;;;;;;;;;;;;;;;6.61;100.00;103394.06;5114274;27;19919;-79
2022/03/27 07:28:58;;;;;;;;;;;;;;;7.01;100.00;103394.22;5135597;27;19983;-78
2022/03/27 07:31:27;;;;;;;;;;;;;;;7.43;100.00;103391.00;5131370;27;19920;-79
2022/03/27 07:34:01;;;;;;;;;;;;;;;7.66;100.00;103384.22;5116178;27;19931;-78
2022/03/27 07:36:27;;;;;;;;;;;;;;;7.99;100.00;103369.63;5133692;27;19964;-79
2022/03/27 07:39:13;;;;;;;;;;;;;;;8.38;100.00;103365.97;5092837;27;19932;-79
2022/03/27 07:41:59;;;;;;;;;;;;;;;8.48;100.00;103365.06;5133798;27;20255;-79
2022/03/27 07:44:32;;;;;;;;;;;;;;;8.54;100.00;103350.75;5117888;27;20320;-79
2022/03/27 07:47:01;;;;;;;;;;;;;;;8.37;100.00;103353.63;5078525;28;20014;-79
2022/03/27 07:49:46;;;;;;;;;;;;;;;8.93;100.00;103343.44;5113629;28;19912;-79
2022/03/27 07:52:11;;;;;;;;;;;;;;;8.90;100.00;103336.25;5095747;28;20073;-79
2022/03/27 07:54:37;;;;;;;;;;;;;;;8.68;100.00;103332.59;5111649;28;19973;-80
2022/03/27 07:57:02;;;;;;;;;;;;;;;9.15;100.00;103330.34;5132683;27;19919;-81
2022/03/27 07:59:27;;;;;;;;;;;;;;;9.32;100.00;103337.91;5134609;27;19954;-78
2022/03/27 08:01:53;;;;;;;;;;;;;;;9.88;100.00;103326.50;5116667;27;20317;-80
2022/03/27 08:04:19;;;;;;;;;;;;;;;10.27;100.00;103318.94;5099569;27;19923;-79
2022/03/27 08:06:47;;;;;;;;;;;;;;;10.78;100.00;103306.19;5134296;27;19970;-79
2022/03/27 08:09:12;;;;;;;;;;;;;;;10.49;100.00;103303.09;5117017;27;19916;-80
2022/03/27 08:11:41;;;;;;;;;;;;;;;11.09;100.00;103296.97;5116116;27;20071;-79
2022/03/27 08:14:08;;;;;;;;;;;;;;;11.44;100.00;103282.78;5100428;27;20394;-81
2022/03/27 08:16:34;;;;;;;;;;;;;;;11.29;100.00;103275.59;5132427;27;20006;-78
2022/03/27 08:19:00;;;;;;;;;;;;;;;11.48;100.00;103259.38;5116436;27;20000;-82
2022/03/27 08:21:26;;;;;;;;;;;;;;;11.14;100.00;103262.25;5116457;27;20002;-79
2022/03/27 08:23:52;;;;;;;;;;;;;;;10.58;100.00;103251.06;5134588;27;20610;-80
2022/03/27 08:29:03;;;;;;;;;;;;;;;10.97;100.00;103231.09;5135099;27;19923;-80
2022/03/27 08:31:29;;;;;;;;;;;;;;;10.89;100.00;103226.97;5116957;27;19916;-79
2022/03/27 08:33:58;;;;;;;;;;;;;;;10.95;100.00;103231.00;5116194;28;20013;-79
2022/03/27 08:36:24;;;;;;;;;;;;;;;10.97;100.00;103236.38;5134599;27;19915;-81
2022/03/27 08:38:49;;;;;;;;;;;;;;;11.18;100.00;103229.06;5116534;27;20382;-79
2022/03/27 08:41:15;;;;;;;;;;;;;;;11.20;100.00;103223.91;5134340;27;19974;-78
2022/03/27 08:43:42;;;;;;;;;;;;;;;11.40;100.00;103228.88;5116444;28;19938;-79
2022/03/27 08:46:08;;;;;;;;;;;;;;;11.12;100.00;103221.66;5135143;28;19999;-80
2022/03/27 08:48:36;;;;;;;;;;;;;;;11.42;100.00;103224.66;5134518;27;19954;-79
2022/03/27 08:51:09;;;;;;;;;;;;;;;11.01;100.00;103225.22;5116589;28;19916;-80
2022/03/27 08:53:55;;;;;;;;;;;;;;;10.93;100.00;103215.88;5116215;28;19916;-80
2022/03/27 08:56:20;;;;;;;;;;;;;;;11.20;100.00;103208.09;5134879;28;19995;-80
2022/03/27 08:58:47;;;;;;;;;;;;;;;10.92;100.00;103211.38;5116013;28;19969;-79
2022/03/27 09:01:13;;;;;;;;;;;;;;;11.45;100.00;103200.19;5116867;28;19938;-79
2022/03/27 09:03:44;;;;;;;;;;;;;;;11.02;100.00;103198.06;5115854;28;19923;-79
2022/03/27 09:06:09;;;;;;;;;;;;;;;11.16;100.00;103195.50;5116469;28;19923;-80
2022/03/27 09:08:34;;;;;;;;;;;;;;;11.13;100.00;103197.09;5116213;28;19931;-79
2022/03/27 09:11:01;;;;;;;;;;;;;;;10.86;100.00;103203.97;5116221;28;20298;-80
2022/03/27 09:13:33;;;;;;;;;;;;;;;10.61;100.00;103203.88;5116180;28;19916;-81
2022/03/27 09:16:01;;;;;;;;;;;;;;;10.68;100.00;103195.63;5099695;28;20060;-80
2022/03/27 09:18:26;;;;;;;;;;;;;;;10.58;100.00;103196.69;5115918;28;20119;-80
2022/03/27 09:20:52;;;;;;;;;;;;;;;10.34;100.00;103202.78;5115784;28;19930;-80
2022/03/27 09:23:30;;;;;;;;;;;;;;;10.31;100.00;103202.50;5116284;28;19947;-81
2022/03/27 09:26:06;;;;;;;;;;;;;;;10.45;100.00;103201.84;5116079;28;19922;-79
2022/03/27 09:28:32;;;;;;;;;;;;;;;10.26;100.00;103199.53;5134393;28;20010;-80
2022/03/27 09:30:58;;;;;;;;;;;;;;;10.53;100.00;103191.88;5116227;28;19970;-80
2022/03/27 09:33:34;;;;;;;;;;;;;;;10.51;100.00;103202.28;5115887;28;20015;-80
2022/03/27 09:36:03;;;;;;;;;;;;;;;10.60;100.00;103196.78;5116267;28;19915;-80
2022/03/27 09:38:29;;;;;;;;;;;;;;;10.28;100.00;103200.53;5134513;28;19961;-80
2022/03/27 09:40:54;;;;;;;;;;;;;;;10.22;100.00;103208.94;5115826;28;19915;-80
2022/03/27 09:43:30;;;;;;;;;;;;;;;10.50;100.00;103202.19;5115833;28;19922;-80
2022/03/27 09:45:57;;;;;;;;;;;;;;;10.71;100.00;103195.84;5115486;28;19930;-80
2022/03/27 09:48:22;;;;;;;;;;;;;;;10.89;100.00;103195.34;5115787;28;19968;-80
2022/03/27 09:50:47;;;;;;;;;;;;;;;10.74;100.00;103198.72;5115925;28;19915;-81
2022/03/27 09:53:36;;;;;;;;;;;;;;;10.56;100.00;103193.00;5115712;28;19974;-80
2022/03/27 09:56:01;;;;;;;;;;;;;;;10.80;100.00;103199.94;5115645;28;19924;-80
2022/03/27 09:58:46;;;;;;;;;;;;;;;10.89;100.00;103191.00;5115758;28;19965;-80
2022/03/27 10:01:11;;;;;;;;;;;;;;;10.82;100.00;103199.28;5118325;27;20034;-80
2022/03/27 10:03:40;;;;;;;;;;;;;;;10.90;100.00;103191.91;5118996;27;20332;-80
2022/03/27 10:06:25;;;;;;;;;;;;;;;11.22;100.00;103196.84;5119551;27;19915;-80
2022/03/27 10:08:50;;;;;;;;;;;;;;;11.24;100.00;103195.22;5118894;27;20276;-80
2022/03/27 10:11:18;;;;;;;;;;;;;;;11.33;100.00;103189.69;5136293;27;19922;-79
2022/03/27 10:13:54;;;;;;;;;;;;;;;11.42;100.00;103185.06;5117803;27;20314;-80
2022/03/27 10:16:34;;;;;;;;;;;;;;;11.07;100.00;103180.84;5102137;27;19926;-80
2022/03/27 10:19:02;;;;;;;;;;;;;;;11.20;100.00;103176.44;5119521;27;20015;-80
2022/03/27 10:21:28;;;;;;;;;;;;;;;11.28;100.00;103180.56;5137120;27;20533;-80
2022/03/27 10:24:19;;;;;;;;;;;;;;;11.37;100.00;103177.63;5136876;27;19916;-80
2022/03/27 10:26:45;;;;;;;;;;;;;;;11.24;100.00;103178.50;5113902;27;19915;-79
2022/03/27 10:29:12;;;;;;;;;;;;;;;11.71;100.00;103172.97;5118423;27;20448;-80
2022/03/27 10:31:38;;;;;;;;;;;;;;;11.76;100.00;103170.63;5118686;27;19968;-79
2022/03/27 10:34:14;;;;;;;;;;;;;;;11.71;100.00;103182.63;5118050;27;20276;-80
2022/03/27 10:36:42;;;;;;;;;;;;;;;11.74;100.00;103198.66;5118245;27;19922;-80
2022/03/27 10:39:19;;;;;;;;;;;;;;;11.55;100.00;103201.75;5119150;27;19952;-80
2022/03/27 10:41:51;;;;;;;;;;;;;;;11.81;100.00;103196.53;5118381;27;19922;-80
2022/03/27 10:44:38;;;;;;;;;;;;;;;11.66;100.00;103201.66;5118331;27;20490;-80
2022/03/27 10:47:13;;;;;;;;;;;;;;;11.65;100.00;103199.88;5119084;27;20371;-79
2022/03/27 10:49:40;;;;;;;;;;;;;;;11.68;100.00;103201.78;5118292;27;20351;-80
2022/03/27 10:52:07;;;;;;;;;;;;;;;11.63;100.00;103201.47;5101554;27;19943;-80
2022/03/27 10:54:56;;;;;;;;;;;;;;;11.69;100.00;103200.97;5117894;27;20072;-80
2022/03/27 10:57:29;;;;;;;;;;;;;;;11.76;100.00;103199.66;5118348;27;19922;-79
2022/03/27 10:59:54;;;;;;;;;;;;;;;11.53;100.00;103193.72;5136661;27;19916;-79
2022/03/27 11:02:40;;;;;;;;;;;;;;;11.84;100.00;103187.94;5118533;27;19996;-79
2022/03/27 11:05:05;;;;;;;;;;;;;;;11.94;100.00;103186.84;5100196;27;19956;-81
2022/03/27 11:07:30;;;;;;;;;;;;;;;11.92;100.00;103184.13;5118263;27;19915;-80
2022/03/27 11:09:56;;;;;;;;;;;;;;;12.15;100.00;103188.31;5136173;27;20274;-80
2022/03/27 11:12:24;;;;;;;;;;;;;;;12.14;100.00;103178.53;5117731;27;19916;-80
2022/03/27 11:14:53;;;;;;;;;;;;;;;12.23;100.00;103182.59;5117598;27;19922;-79
2022/03/27 11:17:38;;;;;;;;;;;;;;;12.42;100.00;103169.81;5117499;27;19969;-80
2022/03/27 11:20:06;;;;;;;;;;;;;;;12.64;100.00;103172.09;5115799;27;20374;-78
2022/03/27 11:22:45;;;;;;;;;;;;;;;12.38;100.00;103165.13;5134013;27;19916;-78
2022/03/27 11:25:29;;;;;;;;;;;;;;;12.53;100.00;103166.13;5115440;27;19922;-78
2022/03/27 11:28:03;;;;;;;;;;;;;;;12.53;100.00;103160.84;5116223;27;20312;-80
2022/03/27 11:30:33;;;;;;;;;;;;;;;12.62;100.00;103163.16;5116304;27;19992;-80
2022/03/27 11:36:19;;;;;;;;;;;;;;;12.60;100.00;103154.25;5135649;27;19922;-80
2022/03/27 11:38:55;;;;;;;;;;;;;;;12.58;100.00;103145.28;5117439;27;19964;-80
2022/03/27 11:41:25;;;;;;;;;;;;;;;12.59;100.00;103135.63;5117663;27;20328;-78
2022/03/27 11:43:55;;;;;;;;;;;;;;;12.73;100.00;103143.63;5117294;27;19926;-79
2022/03/27 11:46:23;;;;;;;;;;;;;;;12.64;100.00;103140.38;5135681;27;20002;-80
2022/03/27 11:48:59;;;;;;;;;;;;;;;12.76;100.00;103140.25;5136517;27;20415;-78
2022/03/27 11:51:25;;;;;;;;;;;;;;;12.86;100.00;103133.81;5135380;27;19946;-79
2022/03/27 11:53:53;;;;;;;;;;;;;;;12.84;100.00;103141.66;5117000;27;19926;-80
2022/03/27 11:56:18;;;;;;;;;;;;;;;12.89;100.00;103139.28;5117052;27;19915;-79
2022/03/27 11:58:43;;;;;;;;;;;;;;;12.87;100.00;103140.94;5116609;27;20582;-80
2022/03/27 12:01:09;;;;;;;;;;;;;;;12.83;100.00;103138.91;5116650;27;19938;-79
2022/03/27 12:03:36;;;;;;;;;;;;;;;12.80;100.00;103129.03;5099588;27;19920;-79
2022/03/27 12:06:06;;;;;;;;;;;;;;;13.00;100.00;103145.25;5117082;27;20416;-79
2022/03/27 12:08:32;;;;;;;;;;;;;;;13.19;100.00;103126.16;5135154;27;19916;-79
2022/03/27 12:11:04;;;;;;;;;;;;;;;13.13;100.00;103129.34;5135397;27;19915;-79
2022/03/27 12:13:35;;;;;;;;;;;;;;;13.17;100.00;103120.75;5118315;27;20010;-79
2022/03/27 12:16:00;;;;;;;;;;;;;;;13.07;100.00;103124.59;5130666;27;20341;-80
2022/03/27 12:18:26;;;;;;;;;;;;;;;13.12;100.00;103122.22;5100204;27;20037;-79
2022/03/27 12:20:52;;;;;;;;;;;;;;;13.25;100.00;103114.22;5116769;27;19931;-78
2022/03/27 12:23:20;;;;;;;;;;;;;;;13.14;100.00;103117.94;5134378;27;19915;-79
2022/03/27 12:25:55;;;;;;;;;;;;;;;13.27;100.00;103114.34;5133093;27;19940;-80
2022/03/27 12:31:05;;;;;;;;;;;;;;;13.56;100.00;103108.16;5135235;27;20274;-80
2022/03/27 12:33:33;;;;;;;;;;;;;;;13.57;100.00;103101.16;5118057;27;20014;-79
2022/03/27 12:36:03;;;;;;;;;;;;;;;13.48;100.00;103100.59;5116909;27;19958;-78
2022/03/27 12:38:29;;;;;;;;;;;;;;;13.31;100.00;103107.47;5116330;28;19969;-78
2022/03/27 12:40:54;;;;;;;;;;;;;;;13.31;100.00;103094.25;5134000;27;20019;-79
2022/03/27 12:43:24;;;;;;;;;;;;;;;13.60;100.00;103090.75;5115897;28;19922;-79
2022/03/27 12:45:50;;;;;;;;;;;;;;;13.68;100.00;103093.84;5134407;27;19948;-79
2022/03/27 12:48:16;;;;;;;;;;;;;;;13.76;100.00;103089.91;5116646;28;19922;-78
2022/03/27 12:50:43;;;;;;;;;;;;;;;13.72;100.00;103079.94;5116127;28;19941;-79
2022/03/27 12:53:23;;;;;;;;;;;;;;;13.87;100.00;103072.00;5116496;28;20010;-79
2022/03/27 12:55:57;;;;;;;;;;;;;;;13.93;100.00;103073.25;5134190;28;20294;-79
2022/03/27 12:58:32;;;;;;;;;;;;;;;13.82;100.00;103069.06;5116181;28;19919;-79
2022/03/27 13:01:11;;;;;;;;;;;;;;;13.81;100.00;103062.88;5116505;28;19915;-78
2022/03/27 13:03:39;;;;;;;;;;;;;;;13.91;100.00;103061.66;5117537;28;20589;-79
2022/03/27 13:06:05;;;;;;;;;;;;;;;13.99;100.00;103048.84;5116474;28;19955;-78
2022/03/27 13:08:40;;;;;;;;;;;;;;;14.11;100.00;103044.25;5116136;28;20332;-79
2022/03/27 13:11:10;;;;;;;;;;;;;;;14.10;100.00;103045.06;5136290;28;19915;-79
2022/03/27 13:13:46;;;;;;;;;;;;;;;13.91;100.00;103043.13;5116579;28;20010;-81